Time;durP1;ratioP1;P1;durP2;ratioP2;P2;SDS_P1;SDS_P2;PMS_P1;PMS_P2;Temp;Humidity;BMP_temperature;BMP_pressure;BME280_temperature;BME280_humidity;BME280_pressure;Samples;Min_cycle;Max_cycle;Signal;HPM_P1;HPM_P2
2021/06/21 00:00:56;;;;;;;;;;;17.80;99.90;;;;;;5065460;28;19976;-59
2021/06/21 00:03:21;;;;;;;;;;;17.80;99.90;;;;;;5069163;28;20367;-59
2021/06/21 00:05:47;;;;;;;;;;;17.80;99.90;;;;;;5079023;28;20463;-59
2021/06/21 00:08:13;;;;;;;;;;;17.80;99.90;;;;;;5085210;28;20482;-59
2021/06/21 00:10:38;;;;;;;;;;;17.80;99.90;;;;;;5065043;28;20091;-59
2021/06/21 00:13:04;;;;;;;;;;;17.80;99.90;;;;;;5065129;28;19989;-59
2021/06/21 00:15:31;;;;;;;;;;;17.70;99.90;;;;;;5065552;28;20072;-59
2021/06/21 00:17:57;;;;;;;;;;;17.80;99.90;;;;;;5065617;28;19981;-59
2021/06/21 00:20:24;;;;;;;;;;;17.80;99.90;;;;;;5081391;28;20080;-59
2021/06/21 00:22:51;;;;;;;;;;;17.80;99.90;;;;;;5085511;28;19981;-59
2021/06/21 00:25:17;;;;;;;;;;;17.80;99.90;;;;;;5085888;28;20012;-59
2021/06/21 00:27:42;;;;;;;;;;;17.80;99.90;;;;;;5086054;28;20020;-59
2021/06/21 00:30:10;;;;;;;;;;;17.80;99.90;;;;;;5085432;28;20039;-59
2021/06/21 00:32:37;;;;;;;;;;;17.80;99.90;;;;;;5085289;28;20028;-59
2021/06/21 00:35:02;;;;;;;;;;;17.80;99.90;;;;;;5083392;28;19985;-59
2021/06/21 00:37:29;;;;;;;;;;;17.80;99.90;;;;;;5085398;28;20023;-59
2021/06/21 00:39:54;;;;;;;;;;;17.80;99.90;;;;;;5085300;28;20084;-59
2021/06/21 00:42:20;;;;;;;;;;;17.60;99.90;;;;;;5084897;28;20096;-59
2021/06/21 00:44:46;;;;;;;;;;;17.80;99.90;;;;;;5070620;28;20054;-59
2021/06/21 00:47:13;;;;;;;;;;;17.50;99.90;;;;;;5080287;28;19989;-59
2021/06/21 00:49:39;;;;;;;;;;;17.70;99.90;;;;;;5073886;28;19996;-59
2021/06/21 00:52:05;;;;;;;;;;;17.70;99.90;;;;;;5084361;28;20060;-59
2021/06/21 00:54:32;;;;;;;;;;;17.70;99.90;;;;;;5065644;28;20076;-59
2021/06/21 00:56:57;;;;;;;;;;;17.70;99.90;;;;;;5064747;28;20025;-59
2021/06/21 00:59:24;;;;;;;;;;;17.60;99.90;;;;;;5065048;28;20460;-59
2021/06/21 01:01:49;;;;;;;;;;;17.50;99.90;;;;;;5064807;28;20431;-59
2021/06/21 01:04:15;;;;;;;;;;;17.50;99.90;;;;;;5067579;28;20044;-59
2021/06/21 01:06:40;;;;;;;;;;;17.60;99.90;;;;;;5081876;28;20765;-59
2021/06/21 01:09:06;;;;;;;;;;;17.60;99.90;;;;;;5074784;28;19981;-58
2021/06/21 01:11:52;;;;;;;;;;;17.70;99.90;;;;;;5075159;28;20015;-58
2021/06/21 01:14:17;;;;;;;;;;;17.70;99.90;;;;;;5086998;28;19981;-58
2021/06/21 01:16:58;;;;;;;;;;;17.90;99.90;;;;;;5087560;28;19977;-58
2021/06/21 01:19:26;;;;;;;;;;;18.00;99.90;;;;;;5080455;28;19989;-58
2021/06/21 01:22:11;;;;;;;;;;;17.90;99.90;;;;;;5070700;28;19978;-58
2021/06/21 01:24:55;;;;;;;;;;;18.00;99.90;;;;;;5070613;28;20001;-58
2021/06/21 01:27:27;;;;;;;;;;;18.10;99.90;;;;;;5070269;28;20534;-57
2021/06/21 01:30:10;;;;;;;;;;;17.90;99.90;;;;;;5070474;28;19981;-58
2021/06/21 01:32:48;;;;;;;;;;;18.00;99.90;;;;;;5070449;28;20351;-58
2021/06/21 01:35:16;;;;;;;;;;;17.90;99.90;;;;;;5070694;28;20455;-58
2021/06/21 01:37:43;;;;;;;;;;;18.00;99.90;;;;;;5070466;28;20008;-57
2021/06/21 01:40:09;;;;;;;;;;;17.90;99.90;;;;;;5069596;28;19990;-58
2021/06/21 01:42:35;;;;;;;;;;;17.90;99.90;;;;;;5070452;28;19996;-58
2021/06/21 01:45:03;;;;;;;;;;;17.90;99.90;;;;;;5070109;28;19997;-58
2021/06/21 01:47:29;;;;;;;;;;;17.90;99.90;;;;;;5070073;28;20073;-58
2021/06/21 01:49:56;;;;;;;;;;;17.80;99.90;;;;;;5070327;28;20076;-58
2021/06/21 01:52:22;;;;;;;;;;;17.80;99.90;;;;;;5069911;28;20013;-58
2021/06/21 01:54:55;;;;;;;;;;;17.70;99.90;;;;;;5070463;28;20347;-57
2021/06/21 01:57:26;;;;;;;;;;;17.80;99.90;;;;;;5070295;28;19985;-58
2021/06/21 01:59:52;;;;;;;;;;;17.80;99.90;;;;;;5070235;28;20012;-58
2021/06/21 02:02:20;;;;;;;;;;;17.80;99.90;;;;;;5069481;28;20022;-58
2021/06/21 02:04:46;;;;;;;;;;;17.70;99.90;;;;;;5070227;28;20009;-58
2021/06/21 02:07:12;;;;;;;;;;;17.70;99.90;;;;;;5069681;28;19988;-58
2021/06/21 02:09:38;;;;;;;;;;;17.70;99.90;;;;;;5069882;28;19991;-58
2021/06/21 02:12:04;;;;;;;;;;;17.80;99.90;;;;;;5069651;28;19986;-58
2021/06/21 02:14:31;;;;;;;;;;;17.70;99.90;;;;;;5069636;28;20023;-58
2021/06/21 02:16:57;;;;;;;;;;;17.70;99.90;;;;;;5069059;28;19993;-58
2021/06/21 02:19:24;;;;;;;;;;;17.70;99.90;;;;;;5069386;28;20035;-58
2021/06/21 02:21:49;;;;;;;;;;;17.70;99.90;;;;;;5069696;28;20031;-58
2021/06/21 02:24:17;;;;;;;;;;;17.60;99.90;;;;;;5069772;28;20015;-58
2021/06/21 02:26:44;;;;;;;;;;;17.50;99.90;;;;;;5069424;28;20031;-57
2021/06/21 02:29:10;;;;;;;;;;;17.60;99.90;;;;;;5079685;28;19989;-58
2021/06/21 02:31:35;;;;;;;;;;;17.70;99.90;;;;;;5088733;28;19978;-58
2021/06/21 02:34:01;;;;;;;;;;;17.70;99.90;;;;;;5086345;28;19981;-58
2021/06/21 02:36:27;;;;;;;;;;;17.70;99.90;;;;;;5089855;28;19983;-57
2021/06/21 02:38:54;;;;;;;;;;;17.70;99.90;;;;;;5089137;28;19992;-58
2021/06/21 02:41:20;;;;;;;;;;;17.60;99.90;;;;;;5089252;28;19981;-58
2021/06/21 02:43:46;;;;;;;;;;;17.50;99.90;;;;;;5089178;28;19984;-57
2021/06/21 02:46:11;;;;;;;;;;;17.50;99.90;;;;;;5088806;28;20098;-58
2021/06/21 02:48:38;;;;;;;;;;;17.60;99.90;;;;;;5087813;28;20057;-58
2021/06/21 02:51:04;;;;;;;;;;;17.40;99.90;;;;;;5088405;28;20861;-58
2021/06/21 02:53:40;;;;;;;;;;;17.60;99.90;;;;;;5089329;28;19984;-58
2021/06/21 02:56:24;;;;;;;;;;;17.60;99.90;;;;;;5088811;28;20029;-57
2021/06/21 02:58:50;;;;;;;;;;;17.50;99.90;;;;;;5088702;28;20026;-58
2021/06/21 03:01:18;;;;;;;;;;;17.50;99.90;;;;;;5087625;28;20091;-58
2021/06/21 03:03:46;;;;;;;;;;;17.50;99.90;;;;;;5082771;28;20072;-58
2021/06/21 03:06:14;;;;;;;;;;;17.60;99.90;;;;;;5068284;28;20002;-58
2021/06/21 03:08:40;;;;;;;;;;;17.50;99.90;;;;;;5068427;28;20027;-58
2021/06/21 03:11:07;;;;;;;;;;;17.50;99.90;;;;;;5067426;28;20466;-58
2021/06/21 03:13:33;;;;;;;;;;;17.60;99.90;;;;;;5066774;28;20576;-58
2021/06/21 03:15:59;;;;;;;;;;;17.60;99.90;;;;;;5068905;28;19981;-58
2021/06/21 03:18:26;;;;;;;;;;;17.70;99.90;;;;;;5068249;28;20503;-58
2021/06/21 03:20:55;;;;;;;;;;;17.70;99.90;;;;;;5068390;28;20067;-58
2021/06/21 03:23:22;;;;;;;;;;;17.70;99.90;;;;;;5068237;28;19977;-58
2021/06/21 03:25:52;;;;;;;;;;;17.60;99.90;;;;;;5068171;28;20022;-58
2021/06/21 03:28:18;;;;;;;;;;;17.70;99.90;;;;;;5067755;28;19988;-58
2021/06/21 03:30:47;;;;;;;;;;;17.70;99.90;;;;;;5068257;28;19988;-57
2021/06/21 03:33:12;;;;;;;;;;;17.70;99.90;;;;;;5067489;28;19977;-58
2021/06/21 03:35:38;;;;;;;;;;;17.70;99.90;;;;;;5067472;28;19981;-58
2021/06/21 03:38:10;;;;;;;;;;;17.70;99.90;;;;;;5067165;28;19984;-58
2021/06/21 03:40:35;;;;;;;;;;;17.70;99.90;;;;;;5067577;28;20023;-58
2021/06/21 03:43:01;;;;;;;;;;;17.70;99.90;;;;;;5065806;28;19986;-58
2021/06/21 03:45:26;;;;;;;;;;;17.60;99.90;;;;;;5067281;28;20103;-58
2021/06/21 03:47:52;;;;;;;;;;;17.70;99.90;;;;;;5067165;28;19993;-58
2021/06/21 03:50:17;;;;;;;;;;;17.60;99.90;;;;;;5066045;28;20020;-58
2021/06/21 03:52:43;;;;;;;;;;;17.70;99.90;;;;;;5062546;28;20055;-58
2021/06/21 03:55:09;;;;;;;;;;;17.60;99.90;;;;;;5066497;28;20013;-58
2021/06/21 03:57:39;;;;;;;;;;;17.60;99.90;;;;;;5066484;28;19996;-58
2021/06/21 04:00:07;;;;;;;;;;;17.60;99.90;;;;;;5066673;28;20497;-58
2021/06/21 04:02:32;;;;;;;;;;;17.60;99.90;;;;;;5067176;28;19982;-58
2021/06/21 04:04:58;;;;;;;;;;;17.60;99.90;;;;;;5067854;28;20004;-58
2021/06/21 04:07:23;;;;;;;;;;;17.70;99.90;;;;;;5067194;28;20060;-58
2021/06/21 04:09:49;;;;;;;;;;;17.70;99.90;;;;;;5067425;28;19992;-58
2021/06/21 04:12:16;;;;;;;;;;;17.80;99.90;;;;;;5066763;28;20048;-58
2021/06/21 04:14:42;;;;;;;;;;;17.70;99.90;;;;;;5067376;28;19978;-58
2021/06/21 04:17:08;;;;;;;;;;;17.70;99.90;;;;;;5066801;28;19988;-58
2021/06/21 04:19:34;;;;;;;;;;;17.60;99.90;;;;;;5067256;28;20400;-58
2021/06/21 04:22:01;;;;;;;;;;;17.50;99.90;;;;;;5067352;28;20047;-58
2021/06/21 04:24:27;;;;;;;;;;;17.50;99.90;;;;;;5067856;28;20104;-58
2021/06/21 04:26:52;;;;;;;;;;;17.60;99.90;;;;;;5067167;28;20077;-58
2021/06/21 04:29:18;;;;;;;;;;;17.60;99.90;;;;;;5066808;28;20477;-58
2021/06/21 04:31:43;;;;;;;;;;;17.60;99.90;;;;;;5074256;28;19988;-58
2021/06/21 04:34:10;;;;;;;;;;;17.40;99.90;;;;;;5087529;28;20080;-58
2021/06/21 04:36:36;;;;;;;;;;;17.60;99.90;;;;;;5086719;28;20394;-58
2021/06/21 04:39:01;;;;;;;;;;;17.60;99.90;;;;;;5085832;28;19981;-58
2021/06/21 04:41:27;;;;;;;;;;;17.70;99.90;;;;;;5086757;28;19981;-58
2021/06/21 04:43:53;;;;;;;;;;;17.60;99.90;;;;;;5086975;28;20019;-58
2021/06/21 04:46:23;;;;;;;;;;;17.60;99.90;;;;;;5086642;28;20001;-58
2021/06/21 04:48:49;;;;;;;;;;;17.60;99.90;;;;;;5087056;28;19989;-58
2021/06/21 04:51:16;;;;;;;;;;;17.70;99.90;;;;;;5086497;28;20046;-58
2021/06/21 04:53:42;;;;;;;;;;;17.60;99.90;;;;;;5085287;28;20023;-58
2021/06/21 04:56:08;;;;;;;;;;;17.60;99.90;;;;;;5069838;28;20001;-58
2021/06/21 04:58:35;;;;;;;;;;;17.70;99.90;;;;;;5067021;28;19989;-58
2021/06/21 05:01:01;;;;;;;;;;;17.70;99.90;;;;;;5066878;28;20328;-58
2021/06/21 05:03:27;;;;;;;;;;;17.80;99.90;;;;;;5066901;28;19978;-58
2021/06/21 05:05:52;;;;;;;;;;;17.80;99.90;;;;;;5065639;28;20066;-58
2021/06/21 05:08:18;;;;;;;;;;;17.80;99.90;;;;;;5066780;28;19977;-58
2021/06/21 05:10:43;;;;;;;;;;;17.60;99.90;;;;;;5066148;28;20198;-58
2021/06/21 05:13:09;;;;;;;;;;;17.50;99.90;;;;;;5066536;28;20517;-58
2021/06/21 05:15:34;;;;;;;;;;;17.50;99.90;;;;;;5066839;28;20021;-58
2021/06/21 05:18:00;;;;;;;;;;;17.40;99.90;;;;;;5066501;28;19984;-58
2021/06/21 05:20:25;;;;;;;;;;;17.40;99.90;;;;;;5066826;28;19978;-58
2021/06/21 05:22:52;;;;;;;;;;;17.60;99.90;;;;;;5066690;28;20003;-58
2021/06/21 05:25:18;;;;;;;;;;;17.50;99.90;;;;;;5066185;28;20054;-58
2021/06/21 05:27:44;;;;;;;;;;;17.50;99.90;;;;;;5066742;28;19981;-58
2021/06/21 05:30:09;;;;;;;;;;;17.60;99.90;;;;;;5066971;28;20042;-58
2021/06/21 05:32:36;;;;;;;;;;;17.70;99.90;;;;;;5066478;28;19981;-59
2021/06/21 05:35:02;;;;;;;;;;;17.70;99.90;;;;;;5066050;28;19982;-58
2021/06/21 05:37:28;;;;;;;;;;;17.70;99.90;;;;;;5066903;28;20325;-59
2021/06/21 05:39:55;;;;;;;;;;;17.70;99.90;;;;;;5066139;28;19993;-59
2021/06/21 05:42:20;;;;;;;;;;;17.80;99.90;;;;;;5066284;28;20050;-58
2021/06/21 05:44:46;;;;;;;;;;;17.80;99.90;;;;;;5066367;28;20091;-58
2021/06/21 05:47:14;;;;;;;;;;;17.80;99.90;;;;;;5066620;28;19978;-58
2021/06/21 05:49:40;;;;;;;;;;;17.80;99.90;;;;;;5067172;28;20000;-58
2021/06/21 05:52:05;;;;;;;;;;;17.70;99.90;;;;;;5065164;28;19977;-59
2021/06/21 05:54:31;;;;;;;;;;;17.70;99.90;;;;;;5065549;28;20012;-59
2021/06/21 05:56:58;;;;;;;;;;;17.60;99.90;;;;;;5066119;28;19985;-58
2021/06/21 05:59:24;;;;;;;;;;;17.50;99.90;;;;;;5066349;28;19982;-59
2021/06/21 06:01:50;;;;;;;;;;;17.70;99.90;;;;;;5069896;28;20076;-59
2021/06/21 06:04:15;;;;;;;;;;;17.60;99.90;;;;;;5074598;28;20071;-58
2021/06/21 06:06:41;;;;;;;;;;;17.70;99.90;;;;;;5080270;28;19984;-58
2021/06/21 06:09:06;;;;;;;;;;;17.60;99.90;;;;;;5089817;28;19981;-58
2021/06/21 06:11:32;;;;;;;;;;;17.50;99.90;;;;;;5085226;28;19985;-58
2021/06/21 06:13:59;;;;;;;;;;;17.70;99.90;;;;;;5087305;28;20066;-59
2021/06/21 06:16:24;;;;;;;;;;;17.80;99.90;;;;;;5076939;28;19989;-58
2021/06/21 06:18:50;;;;;;;;;;;17.90;99.90;;;;;;5069767;28;19991;-58
2021/06/21 06:21:17;;;;;;;;;;;17.80;99.90;;;;;;5069181;28;20451;-58
2021/06/21 06:23:43;;;;;;;;;;;17.80;99.90;;;;;;5082328;28;20436;-58
2021/06/21 06:26:09;;;;;;;;;;;17.90;99.90;;;;;;5081227;28;20005;-58
2021/06/21 06:28:35;;;;;;;;;;;17.90;99.90;;;;;;5068640;28;20058;-58
2021/06/21 06:31:00;;;;;;;;;;;17.90;99.90;;;;;;5089543;28;20068;-58
2021/06/21 06:33:26;;;;;;;;;;;17.90;99.90;;;;;;5087402;28;19985;-58
2021/06/21 06:35:51;;;;;;;;;;;18.00;99.90;;;;;;5089757;28;19977;-59
2021/06/21 06:38:18;;;;;;;;;;;18.10;99.90;;;;;;5084679;28;19989;-58
2021/06/21 06:40:44;;;;;;;;;;;18.30;99.90;;;;;;5069463;28;19989;-58
2021/06/21 06:43:10;;;;;;;;;;;18.30;99.90;;;;;;5068987;28;19981;-58
2021/06/21 06:45:36;;;;;;;;;;;18.50;99.90;;;;;;5088198;28;20004;-58
2021/06/21 06:48:02;;;;;;;;;;;18.50;99.90;;;;;;5087546;28;20037;-58
2021/06/21 06:50:28;;;;;;;;;;;18.60;99.90;;;;;;5069351;28;20035;-58
2021/06/21 06:52:54;;;;;;;;;;;18.60;99.90;;;;;;5084717;28;20405;-58
2021/06/21 06:58:06;;;;;;;;;;;18.80;99.90;;;;;;5089019;28;20531;-59
2021/06/21 07:00:33;;;;;;;;;;;18.90;99.90;;;;;;5089236;28;20065;-59
2021/06/21 07:02:59;;;;;;;;;;;19.00;99.90;;;;;;5087115;28;19981;-59
2021/06/21 07:05:25;;;;;;;;;;;19.10;99.90;;;;;;5069033;28;20008;-59
2021/06/21 07:07:50;;;;;;;;;;;19.00;99.90;;;;;;5072428;28;20034;-59
2021/06/21 07:10:16;;;;;;;;;;;19.10;99.90;;;;;;5085674;28;20023;-59
2021/06/21 07:12:42;;;;;;;;;;;19.10;99.90;;;;;;5082601;28;19988;-58
2021/06/21 07:15:07;;;;;;;;;;;19.20;99.90;;;;;;5072017;28;20075;-58
2021/06/21 07:17:34;;;;;;;;;;;19.20;99.90;;;;;;5076936;28;19992;-58
2021/06/21 07:19:59;;;;;;;;;;;18.90;99.90;;;;;;5080349;28;19981;-58
2021/06/21 07:22:26;;;;;;;;;;;19.20;99.90;;;;;;5087756;28;19981;-58
2021/06/21 07:24:51;;;;;;;;;;;19.20;99.90;;;;;;5087860;28;20075;-58
2021/06/21 07:27:17;;;;;;;;;;;19.40;99.90;;;;;;5086969;28;19981;-58
2021/06/21 07:29:43;;;;;;;;;;;19.40;99.90;;;;;;5087323;28;19981;-58
2021/06/21 07:32:09;;;;;;;;;;;19.40;99.90;;;;;;5086738;28;19981;-58
2021/06/21 07:34:37;;;;;;;;;;;19.30;99.90;;;;;;5086926;28;20075;-58
2021/06/21 07:37:02;;;;;;;;;;;19.50;99.90;;;;;;5086699;28;19984;-58
2021/06/21 07:39:28;;;;;;;;;;;19.50;99.90;;;;;;5087111;28;19981;-58
2021/06/21 07:41:53;;;;;;;;;;;19.40;99.90;;;;;;5087521;28;19985;-58
2021/06/21 07:44:20;;;;;;;;;;;19.50;99.90;;;;;;5086454;28;19981;-58
2021/06/21 07:46:47;;;;;;;;;;;19.60;99.90;;;;;;5085705;28;20427;-58
2021/06/21 07:49:13;;;;;;;;;;;19.50;99.90;;;;;;5085969;28;20093;-58
2021/06/21 07:51:40;;;;;;;;;;;19.70;99.90;;;;;;5086527;28;20422;-58
2021/06/21 07:54:06;;;;;;;;;;;19.70;99.90;;;;;;5086110;28;20041;-58
2021/06/21 07:56:32;;;;;;;;;;;19.80;99.90;;;;;;5086332;28;20447;-58
2021/06/21 07:58:57;;;;;;;;;;;19.90;99.90;;;;;;5086370;28;19988;-58
2021/06/21 08:01:24;;;;;;;;;;;19.80;99.90;;;;;;5086759;28;19985;-58
2021/06/21 08:03:52;;;;;;;;;;;19.90;99.90;;;;;;5086333;28;20627;-58
2021/06/21 08:06:17;;;;;;;;;;;20.00;99.90;;;;;;5086167;28;20001;-58
2021/06/21 08:08:44;;;;;;;;;;;20.10;99.90;;;;;;5086446;28;19981;-58
2021/06/21 08:11:11;;;;;;;;;;;20.20;99.90;;;;;;5085946;28;19977;-58
2021/06/21 08:13:36;;;;;;;;;;;20.20;99.90;;;;;;5086292;28;19981;-58
2021/06/21 08:16:02;;;;;;;;;;;20.40;99.90;;;;;;5085812;28;19987;-58
2021/06/21 08:18:28;;;;;;;;;;;20.30;99.90;;;;;;5085950;28;20068;-58
2021/06/21 08:20:53;;;;;;;;;;;20.30;99.90;;;;;;5086689;28;20507;-58
2021/06/21 08:23:19;;;;;;;;;;;20.20;99.90;;;;;;5085526;28;20589;-58
2021/06/21 08:25:45;;;;;;;;;;;20.20;99.90;;;;;;5085948;28;20057;-58
2021/06/21 08:28:12;;;;;;;;;;;20.40;99.90;;;;;;5085784;28;20363;-58
2021/06/21 08:30:39;;;;;;;;;;;20.50;99.90;;;;;;5085066;28;20022;-58
2021/06/21 08:33:06;;;;;;;;;;;20.40;99.90;;;;;;5085367;28;20502;-58
2021/06/21 08:35:32;;;;;;;;;;;20.60;99.90;;;;;;5085897;28;19977;-58
2021/06/21 08:37:59;;;;;;;;;;;20.80;99.90;;;;;;5085758;28;19977;-58
2021/06/21 08:40:24;;;;;;;;;;;21.00;99.90;;;;;;5086529;28;19988;-58
2021/06/21 08:42:51;;;;;;;;;;;21.10;99.90;;;;;;5086208;28;19989;-58
2021/06/21 08:45:17;;;;;;;;;;;20.90;99.90;;;;;;5085331;28;20005;-58
2021/06/21 08:47:44;;;;;;;;;;;20.70;99.90;;;;;;5085582;28;19992;-58
2021/06/21 08:50:10;;;;;;;;;;;21.00;99.90;;;;;;5085731;28;19977;-58
2021/06/21 08:52:36;;;;;;;;;;;21.10;99.90;;;;;;5085509;28;20016;-58
2021/06/21 08:55:04;;;;;;;;;;;21.20;99.90;;;;;;5085316;28;20028;-58
2021/06/21 08:57:30;;;;;;;;;;;21.20;99.90;;;;;;5085732;28;19987;-58
2021/06/21 08:59:56;;;;;;;;;;;21.30;99.90;;;;;;5085464;28;19985;-58
2021/06/21 09:02:22;;;;;;;;;;;21.30;99.90;;;;;;5086176;28;20046;-58
2021/06/21 09:04:47;;;;;;;;;;;21.20;99.90;;;;;;5085588;28;20213;-58
2021/06/21 09:07:19;;;;;;;;;;;21.40;99.90;;;;;;5085842;28;20413;-58
2021/06/21 09:09:45;;;;;;;;;;;21.30;99.90;;;;;;5085721;28;19985;-58
2021/06/21 09:12:12;;;;;;;;;;;21.20;99.90;;;;;;5085465;28;19981;-58
2021/06/21 09:14:38;;;;;;;;;;;21.20;99.90;;;;;;5085400;28;20452;-58
2021/06/21 09:17:12;;;;;;;;;;;21.20;99.90;;;;;;5085271;28;19993;-58
2021/06/21 09:19:53;;;;;;;;;;;21.10;99.90;;;;;;5085562;28;19982;-58
2021/06/21 09:22:31;;;;;;;;;;;21.10;99.90;;;;;;5085173;28;20055;-58
2021/06/21 09:24:58;;;;;;;;;;;21.10;99.90;;;;;;5085205;28;20083;-58
2021/06/21 09:27:26;;;;;;;;;;;21.10;99.90;;;;;;5086115;28;20417;-58
2021/06/21 09:29:52;;;;;;;;;;;21.10;99.90;;;;;;5086097;28;20490;-58
2021/06/21 09:32:20;;;;;;;;;;;21.10;99.90;;;;;;5084996;28;20022;-58
2021/06/21 09:34:46;;;;;;;;;;;21.20;99.90;;;;;;5085375;28;19981;-58
2021/06/21 09:37:13;;;;;;;;;;;21.20;99.90;;;;;;5085259;28;20351;-58
2021/06/21 09:39:44;;;;;;;;;;;21.30;99.90;;;;;;5085428;28;20012;-58
2021/06/21 09:42:15;;;;;;;;;;;21.40;99.90;;;;;;5089016;28;20560;-58
2021/06/21 09:44:48;;;;;;;;;;;21.50;99.90;;;;;;5088886;28;20007;-58
2021/06/21 09:47:16;;;;;;;;;;;21.50;99.90;;;;;;5088684;28;20457;-58
2021/06/21 09:50:00;;;;;;;;;;;21.60;99.90;;;;;;5089214;28;20554;-58
2021/06/21 09:52:38;;;;;;;;;;;21.70;99.90;;;;;;5088602;28;19980;-58
2021/06/21 09:55:10;;;;;;;;;;;22.10;99.90;;;;;;5088831;28;20039;-59
2021/06/21 09:57:36;;;;;;;;;;;22.10;99.90;;;;;;5088776;28;19992;-58
2021/06/21 10:00:04;;;;;;;;;;;22.10;99.90;;;;;;5088460;28;19981;-58
2021/06/21 10:02:30;;;;;;;;;;;22.20;99.90;;;;;;5088659;28;20510;-58
2021/06/21 10:04:56;;;;;;;;;;;22.40;99.90;;;;;;5088463;28;20004;-58
2021/06/21 10:07:26;;;;;;;;;;;22.30;99.90;;;;;;5089473;28;20068;-58
2021/06/21 10:10:04;;;;;;;;;;;22.20;99.90;;;;;;5089298;28;19977;-58
2021/06/21 10:12:30;;;;;;;;;;;22.30;99.90;;;;;;5088891;28;19988;-58
2021/06/21 10:14:56;;;;;;;;;;;22.40;99.90;;;;;;5088346;28;20390;-58
2021/06/21 10:17:21;;;;;;;;;;;22.60;99.90;;;;;;5089301;28;19977;-58
2021/06/21 10:19:48;;;;;;;;;;;22.80;99.90;;;;;;5088980;28;20308;-58
2021/06/21 10:22:14;;;;;;;;;;;22.90;99.90;;;;;;5088094;28;20068;-58
2021/06/21 10:24:39;;;;;;;;;;;23.30;99.90;;;;;;5088452;28;20099;-58
2021/06/21 10:27:06;;;;;;;;;;;23.50;99.90;;;;;;5088270;28;20033;-58
2021/06/21 10:29:35;;;;;;;;;;;23.60;99.90;;;;;;5088363;28;20280;-58
2021/06/21 10:32:03;;;;;;;;;;;23.70;99.90;;;;;;5088083;28;19981;-57
2021/06/21 10:34:29;;;;;;;;;;;23.80;99.90;;;;;;5088479;28;20070;-58
2021/06/21 10:36:56;;;;;;;;;;;24.00;99.90;;;;;;5087968;28;20493;-58
2021/06/21 10:39:24;;;;;;;;;;;23.70;99.90;;;;;;5074634;28;19995;-58
2021/06/21 10:42:05;;;;;;;;;;;23.70;99.90;;;;;;5067853;28;20418;-58
2021/06/21 10:44:34;;;;;;;;;;;23.50;99.90;;;;;;5067661;28;20079;-58
2021/06/21 10:47:19;;;;;;;;;;;23.50;99.90;;;;;;5085525;28;20375;-58
2021/06/21 10:49:54;;;;;;;;;;;23.80;99.90;;;;;;5087829;28;20085;-58
2021/06/21 10:52:33;;;;;;;;;;;23.80;99.90;;;;;;5085795;28;19980;-58
2021/06/21 10:55:17;;;;;;;;;;;23.70;99.90;;;;;;5067392;28;19988;-58
2021/06/21 10:57:43;;;;;;;;;;;24.00;99.90;;;;;;5073230;28;20005;-58
2021/06/21 11:00:12;;;;;;;;;;;24.10;99.90;;;;;;5078713;28;20025;-58
2021/06/21 11:02:38;;;;;;;;;;;24.00;99.90;;;;;;5075010;28;19985;-58
2021/06/21 11:05:04;;;;;;;;;;;24.00;99.90;;;;;;5087179;28;20008;-58
2021/06/21 11:07:29;;;;;;;;;;;23.70;99.90;;;;;;5075504;28;20023;-58
2021/06/21 11:09:58;;;;;;;;;;;23.70;99.90;;;;;;5089522;28;19988;-58
2021/06/21 11:12:23;;;;;;;;;;;23.80;99.90;;;;;;5072826;28;19985;-58
2021/06/21 11:15:10;;;;;;;;;;;23.70;99.90;;;;;;5068949;28;19977;-58
2021/06/21 11:17:42;;;;;;;;;;;24.00;99.90;;;;;;5071346;28;19992;-58
2021/06/21 11:20:26;;;;;;;;;;;24.30;99.90;;;;;;5067915;28;19995;-58
2021/06/21 11:22:57;;;;;;;;;;;24.30;99.90;;;;;;5069025;28;20067;-58
2021/06/21 11:25:42;;;;;;;;;;;24.50;99.90;;;;;;5070622;28;20035;-58
2021/06/21 11:28:27;;;;;;;;;;;24.40;99.90;;;;;;5067949;28;19996;-58
2021/06/21 11:31:13;;;;;;;;;;;24.80;99.90;;;;;;5073608;28;19989;-58
2021/06/21 11:34:08;;;;;;;;;;;24.90;99.90;;;;;;5087762;28;20017;-58
2021/06/21 11:36:43;;;;;;;;;;;24.80;99.90;;;;;;5076217;28;20138;-58
2021/06/21 11:39:21;;;;;;;;;;;24.60;99.90;;;;;;5088108;28;19983;-58
2021/06/21 11:41:56;;;;;;;;;;;24.70;99.90;;;;;;5076656;28;20030;-55
2021/06/21 11:44:37;;;;;;;;;;;24.90;99.90;;;;;;5072476;28;19981;-54
2021/06/21 11:47:23;;;;;;;;;;;24.90;99.90;;;;;;5075569;28;20004;-54
2021/06/21 11:49:52;;;;;;;;;;;25.10;99.90;;;;;;5086739;28;19985;-55
2021/06/21 11:52:18;;;;;;;;;;;25.20;99.90;;;;;;5066613;28;20034;-55
2021/06/21 11:54:44;;;;;;;;;;;25.10;99.90;;;;;;5066576;28;19982;-53
2021/06/21 11:57:11;;;;;;;;;;;25.30;99.90;;;;;;5083954;28;20501;-56
2021/06/21 11:59:40;;;;;;;;;;;25.60;99.90;;;;;;5069216;28;19982;-56
2021/06/21 12:02:09;;;;;;;;;;;25.60;99.90;;;;;;5067109;28;20475;-56
2021/06/21 12:04:35;;;;;;;;;;;25.60;99.90;;;;;;5069909;28;20424;-56
2021/06/21 12:07:02;;;;;;;;;;;25.80;99.90;;;;;;5072219;28;20037;-56
2021/06/21 12:09:28;;;;;;;;;;;25.70;99.90;;;;;;5067937;28;19989;-55
2021/06/21 12:11:53;;;;;;;;;;;25.50;99.90;;;;;;5067026;28;20490;-55
2021/06/21 12:14:23;;;;;;;;;;;26.00;99.90;;;;;;5085756;28;20015;-56
2021/06/21 12:16:49;;;;;;;;;;;26.20;99.90;;;;;;5079911;28;20028;-56
2021/06/21 12:19:14;;;;;;;;;;;26.40;99.90;;;;;;5068168;28;20019;-56
2021/06/21 12:21:44;;;;;;;;;;;26.50;99.90;;;;;;5080418;28;19985;-52
2021/06/21 12:24:17;;;;;;;;;;;26.60;99.90;;;;;;5073293;28;19981;-50
2021/06/21 12:26:43;;;;;;;;;;;26.60;99.90;;;;;;5074795;28;19996;-52
2021/06/21 12:29:22;;;;;;;;;;;26.60;99.90;;;;;;5075229;28;20714;-52
2021/06/21 12:32:01;;;;;;;;;;;26.80;99.90;;;;;;5069897;28;20034;-51
2021/06/21 12:34:39;;;;;;;;;;;26.90;99.90;;;;;;5072345;28;20037;-53
2021/06/21 12:37:23;;;;;;;;;;;26.90;99.90;;;;;;5095683;28;20011;-52
2021/06/21 12:39:59;;;;;;;;;;;27.00;99.90;;;;;;5082064;28;19984;-52
2021/06/21 12:42:26;;;;;;;;;;;27.20;99.90;;;;;;5066718;28;20354;-54
2021/06/21 12:44:52;;;;;;;;;;;27.20;99.90;;;;;;5070555;28;20007;-53
2021/06/21 12:47:20;;;;;;;;;;;27.10;99.90;;;;;;5069499;28;19981;-53
2021/06/21 12:49:46;;;;;;;;;;;27.10;99.90;;;;;;5066813;28;19993;-53
2021/06/21 12:52:12;;;;;;;;;;;27.20;99.90;;;;;;5065287;28;20424;-53
2021/06/21 12:54:37;;;;;;;;;;;27.20;99.90;;;;;;5066985;28;20017;-54
2021/06/21 12:57:03;;;;;;;;;;;27.40;99.90;;;;;;5066429;28;20019;-51
2021/06/21 12:59:34;;;;;;;;;;;27.30;99.90;;;;;;5066418;28;19996;-53
2021/06/21 13:02:01;;;;;;;;;;;27.40;99.90;;;;;;5067141;28;20574;-54
2021/06/21 13:04:27;;;;;;;;;;;27.40;99.90;;;;;;5067394;28;20012;-54
2021/06/21 13:07:04;;;;;;;;;;;27.40;99.90;;;;;;5067285;28;19978;-51
2021/06/21 13:09:40;;;;;;;;;;;27.20;99.90;;;;;;5073911;28;20034;-51
2021/06/21 13:12:06;;;;;;;;;;;26.90;99.90;;;;;;5066684;28;20042;-53
2021/06/21 13:14:33;;;;;;;;;;;26.60;99.90;;;;;;5085273;28;19984;-54
2021/06/21 13:17:09;;;;;;;;;;;26.40;99.90;;;;;;5085263;28;19981;-52
2021/06/21 13:19:41;;;;;;;;;;;26.30;99.90;;;;;;5096772;28;20015;-52
2021/06/21 13:22:10;;;;;;;;;;;26.30;99.90;;;;;;5081891;27;20016;-52
2021/06/21 13:24:37;;;;;;;;;;;26.20;99.90;;;;;;5080565;28;20034;-53
2021/06/21 13:27:17;;;;;;;;;;;26.10;99.90;;;;;;5083720;28;19982;-52
2021/06/21 13:29:42;;;;;;;;;;;26.00;99.90;;;;;;5070389;28;20060;-53
2021/06/21 13:32:18;;;;;;;;;;;25.90;99.90;;;;;;5072277;28;20071;-51
2021/06/21 13:34:46;;;;;;;;;;;25.80;99.90;;;;;;5078221;28;19992;-52
2021/06/21 13:37:13;;;;;;;;;;;25.70;99.90;;;;;;5080617;28;20020;-53
2021/06/21 13:39:51;;;;;;;;;;;25.70;99.90;;;;;;5082551;28;19981;-51
2021/06/21 13:42:27;;;;;;;;;;;25.60;99.90;;;;;;5068540;28;20037;-49
2021/06/21 13:44:53;;;;;;;;;;;25.60;99.90;;;;;;5070510;28;20464;-52
2021/06/21 13:47:39;;;;;;;;;;;25.50;99.90;;;;;;5080679;28;20016;-51
2021/06/21 13:50:09;;;;;;;;;;;25.50;99.90;;;;;;5085039;28;20024;-52
2021/06/21 13:52:48;;;;;;;;;;;25.60;99.90;;;;;;5080599;28;20447;-52
2021/06/21 13:55:18;;;;;;;;;;;25.60;99.90;;;;;;5066480;28;19988;-50
2021/06/21 13:57:46;;;;;;;;;;;25.60;99.90;;;;;;5068009;28;20424;-52
2021/06/21 14:00:29;;;;;;;;;;;25.50;99.90;;;;;;5067464;28;20491;-52
2021/06/21 14:02:55;;;;;;;;;;;25.50;99.90;;;;;;5075147;28;19996;-51
2021/06/21 14:05:21;;;;;;;;;;;25.60;99.90;;;;;;5070120;28;20002;-52
2021/06/21 14:07:46;;;;;;;;;;;25.50;99.90;;;;;;5072251;28;19996;-52
2021/06/21 14:10:12;;;;;;;;;;;25.50;99.90;;;;;;5072351;28;19985;-52
2021/06/21 14:12:38;;;;;;;;;;;25.50;99.90;;;;;;5075935;28;20189;-52
2021/06/21 14:15:05;;;;;;;;;;;25.50;99.90;;;;;;5089577;28;19985;-49
2021/06/21 14:17:31;;;;;;;;;;;25.60;99.90;;;;;;5089809;28;20055;-51
2021/06/21 14:19:58;;;;;;;;;;;25.60;99.90;;;;;;5088460;28;19977;-51
2021/06/21 14:22:24;;;;;;;;;;;25.70;99.90;;;;;;5087625;28;20394;-50
2021/06/21 14:24:49;;;;;;;;;;;25.80;99.90;;;;;;5088331;28;20008;-50